createdAt,value
2022-08-03T00:00:14.785Z,0
2022-08-03T00:00:34.579Z,0
2022-08-03T00:01:02.322Z,0
2022-08-03T00:01:33.886Z,0
2022-08-03T00:02:05.637Z,0
2022-08-03T00:02:34.538Z,0
2022-08-03T00:02:54.265Z,0
2022-08-03T00:03:25.720Z,1.77
2022-08-03T00:03:42.571Z,1.44
2022-08-03T00:04:13.721Z,.32
2022-08-03T00:04:34.552Z,.32
2022-08-03T00:05:01.661Z,0
2022-08-03T00:05:33.699Z,0
2022-08-03T00:06:06.259Z,0
2022-08-03T00:06:37.085Z,0
2022-08-03T00:06:53.560Z,0
2022-08-03T00:07:25.680Z,0
2022-08-03T00:07:43.529Z,0
2022-08-03T00:08:14.830Z,0
2022-08-03T00:08:40.150Z,0
2022-08-03T00:09:02.763Z,0
2022-08-03T00:09:36.400Z,0
2022-08-03T00:10:05.660Z,0
2022-08-03T00:10:36.428Z,0
2022-08-03T00:11:10.174Z,0
2022-08-03T00:11:34.567Z,0
2022-08-03T00:11:58.658Z,1.12
2022-08-03T00:12:30.577Z,1.77
2022-08-03T00:13:01.871Z,1.44
2022-08-03T00:13:33.648Z,1.44
2022-08-03T00:14:06.519Z,1.77
2022-08-03T00:14:35.406Z,1.77
2022-08-03T00:14:53.666Z,1.77
2022-08-03T00:15:25.667Z,1.77
2022-08-03T00:15:42.540Z,2.09
2022-08-03T00:16:14.283Z,1.77
2022-08-03T00:16:34.648Z,1.44
2022-08-03T00:17:02.444Z,1.77
2022-08-03T00:17:52.916Z,1.77
2022-08-03T00:18:05.621Z,1.77
2022-08-03T00:18:34.542Z,1.77
2022-08-03T00:18:53.653Z,1.77
2022-08-03T00:19:25.619Z,1.77
2022-08-03T00:19:42.464Z,1.77
2022-08-03T00:20:13.657Z,1.77
2022-08-03T00:20:35.368Z,1.77
2022-08-03T00:21:03.465Z,1.77
2022-08-03T00:21:33.626Z,1.77
2022-08-03T00:22:05.642Z,1.77
2022-08-03T00:22:34.504Z,1.12
2022-08-03T00:22:53.689Z,1.77
2022-08-03T00:23:26.888Z,2.89
2022-08-03T00:23:51.481Z,2.09
2022-08-03T00:24:13.661Z,2.89
2022-08-03T00:24:35.459Z,3.54
2022-08-03T00:25:01.603Z,2.57
2022-08-03T00:25:33.695Z,1.77
2022-08-03T00:26:05.658Z,2.09
2022-08-03T00:26:34.601Z,1.77
2022-08-03T00:26:55.913Z,1.77
2022-08-03T00:27:25.641Z,1.77
2022-08-03T00:27:43.173Z,2.09
2022-08-03T00:28:13.641Z,2.89
2022-08-03T00:28:34.593Z,2.57
2022-08-03T00:29:01.743Z,2.09
2022-08-03T00:29:33.738Z,3.21
2022-08-03T00:30:05.946Z,3.54
2022-08-03T00:30:34.544Z,2.09
2022-08-03T00:30:53.724Z,3.54
2022-08-03T00:31:51.558Z,3.54
2022-08-03T00:32:00.270Z,2.57
2022-08-03T00:32:29.774Z,2.89
2022-08-03T00:33:02.068Z,2.57
2022-08-03T00:33:58.064Z,2.57
2022-08-03T00:34:06.002Z,2.09
2022-08-03T00:34:34.618Z,2.09
2022-08-03T00:35:11.389Z,2.89
2022-08-03T00:35:50.361Z,3.54
2022-08-03T00:35:57.623Z,3.21
2022-08-03T00:36:30.403Z,2.89
2022-08-03T00:37:01.636Z,2.57
2022-08-03T00:37:41.345Z,2.09
2022-08-03T00:38:06.599Z,3.21
2022-08-03T00:38:34.572Z,3.54
2022-08-03T00:38:53.618Z,3.54
2022-08-03T00:39:25.646Z,3.54
2022-08-03T00:39:42.513Z,3.21
2022-08-03T00:40:13.705Z,3.54
2022-08-03T00:40:34.524Z,3.21
2022-08-03T00:41:02.384Z,2.89
2022-08-03T00:41:34.905Z,3.21
2022-08-03T00:42:05.638Z,3.54
2022-08-03T00:42:35.683Z,2.89
2022-08-03T00:42:53.685Z,3.21
2022-08-03T00:43:25.583Z,2.89
2022-08-03T00:43:42.530Z,3.54
2022-08-03T00:44:13.593Z,2.57
2022-08-03T00:44:34.577Z,2.89
2022-08-03T00:45:01.657Z,3.54
2022-08-03T00:45:34.296Z,2.89
2022-08-03T00:46:05.664Z,3.54
2022-08-03T00:46:34.551Z,2.89
2022-08-03T00:47:09.789Z,2.57
2022-08-03T00:47:34.637Z,3.21
2022-08-03T00:47:58.674Z,3.54
2022-08-03T00:48:33.448Z,3.54
2022-08-03T00:49:01.724Z,3.54
2022-08-03T00:49:34.511Z,3.54
2022-08-03T00:50:05.682Z,3.21
2022-08-03T00:50:36.160Z,2.09
2022-08-03T00:50:54.171Z,2.89
2022-08-03T00:51:25.556Z,3.54
2022-08-03T00:51:57.559Z,3.54
2022-08-03T00:52:29.777Z,4.02
2022-08-03T00:53:01.599Z,3.54
2022-08-03T00:53:33.614Z,3.21
2022-08-03T00:54:05.631Z,2.57
2022-08-03T00:54:35.497Z,2.89
2022-08-03T00:54:54.372Z,2.89
2022-08-03T00:55:26.521Z,3.54
2022-08-03T00:55:57.578Z,3.21
2022-08-03T00:56:29.701Z,2.89
2022-08-03T00:57:01.556Z,2.89
2022-08-03T00:57:33.601Z,3.54
2022-08-03T00:58:05.638Z,2.57
2022-08-03T00:58:34.618Z,2.89
2022-08-03T00:58:53.638Z,3.54
2022-08-03T00:59:25.571Z,3.54
2022-08-03T00:59:57.551Z,3.54
2022-08-03T01:00:29.772Z,3.54
2022-08-03T01:01:01.671Z,3.54
2022-08-03T01:01:33.675Z,3.54
2022-08-03T01:02:05.612Z,3.54
2022-08-03T01:02:34.630Z,2.09
2022-08-03T01:02:53.617Z,2.09
2022-08-03T01:03:25.558Z,2.09
2022-08-03T01:03:43.923Z,2.89
2022-08-03T01:04:13.594Z,2.89
2022-08-03T01:04:35.418Z,3.54
2022-08-03T01:05:01.788Z,2.09
2022-08-03T01:05:36.144Z,2.09
2022-08-03T01:06:05.656Z,3.54
2022-08-03T01:06:34.498Z,3.54
2022-08-03T01:06:53.631Z,3.54
2022-08-03T01:07:25.589Z,3.54
2022-08-03T01:07:57.536Z,2.89
2022-08-03T01:08:29.601Z,3.54
2022-08-03T01:09:02.610Z,2.57
2022-08-03T01:09:33.594Z,3.21
2022-08-03T01:10:08.825Z,3.54
2022-08-03T01:10:34.646Z,3.21
2022-08-03T01:10:55.053Z,3.54
2022-08-03T01:11:25.593Z,1.12
2022-08-03T01:12:01.231Z,2.89
2022-08-03T01:12:29.725Z,3.54
2022-08-03T01:13:01.764Z,3.54
2022-08-03T01:14:04.611Z,3.54
2022-08-03T01:14:22.348Z,1.77
2022-08-03T01:14:39.985Z,1.77
2022-08-03T01:15:09.814Z,1.77
2022-08-03T01:15:34.476Z,1.44
2022-08-03T01:15:58.255Z,1.77
2022-08-03T01:16:36.582Z,1.77
2022-08-03T01:17:01.557Z,1.12
2022-08-03T01:17:33.585Z,1.12
2022-08-03T01:18:05.556Z,0
2022-08-03T01:18:34.520Z,0
2022-08-03T01:18:53.598Z,0
2022-08-03T01:19:25.627Z,0
2022-08-03T01:19:57.725Z,0
2022-08-03T01:20:29.815Z,0
2022-08-03T01:21:02.166Z,0
2022-08-03T01:21:33.551Z,0
2022-08-03T01:22:05.667Z,0
2022-08-03T01:22:34.599Z,0
2022-08-03T01:22:53.614Z,0
2022-08-03T01:23:28.791Z,.32
2022-08-03T01:23:58.512Z,1.44
2022-08-03T01:24:29.704Z,1.77
2022-08-03T01:25:01.576Z,1.77
2022-08-03T01:25:35.052Z,2.09
2022-08-03T01:26:05.558Z,1.77
2022-08-03T01:26:35.609Z,1.77
2022-08-03T01:26:53.676Z,2.09
2022-08-03T01:27:25.524Z,1.77
2022-08-03T01:27:57.587Z,2.89
2022-08-03T01:28:29.867Z,2.09
2022-08-03T01:29:01.610Z,2.57
2022-08-03T01:29:33.543Z,2.09
2022-08-03T01:30:06.659Z,2.57
2022-08-03T01:30:36.112Z,2.89
2022-08-03T01:30:53.676Z,2.09
2022-08-03T01:31:25.611Z,2.89
2022-08-03T01:33:00.026Z,2.57
2022-08-03T01:33:17.536Z,2.89
2022-08-03T01:33:49.843Z,3.54
2022-08-03T01:34:21.843Z,3.54
2022-08-03T01:34:39.160Z,3.54
2022-08-03T01:35:09.803Z,3.54
2022-08-03T01:35:35.469Z,2.57
2022-08-03T01:35:57.609Z,2.89
2022-08-03T01:36:29.677Z,2.89
2022-08-03T01:37:01.600Z,1.77
2022-08-03T01:37:33.608Z,3.21
2022-08-03T01:38:06.364Z,3.54
2022-08-03T01:38:35.239Z,3.54
2022-08-03T01:38:54.526Z,3.54
2022-08-03T01:39:25.548Z,3.54
2022-08-03T01:39:57.556Z,3.54
2022-08-03T01:40:30.106Z,3.21
2022-08-03T01:41:01.513Z,3.21
2022-08-03T01:41:34.368Z,1.77
2022-08-03T01:42:05.607Z,2.09
2022-08-03T01:42:34.560Z,2.09
2022-08-03T01:42:53.557Z,3.21
2022-08-03T01:44:26.515Z,3.54
2022-08-03T01:44:34.538Z,3.54
2022-08-03T01:45:01.663Z,3.54
2022-08-03T01:45:35.131Z,4.02
2022-08-03T01:46:05.571Z,4.34
2022-08-03T01:46:34.508Z,4.34
2022-08-03T01:46:53.485Z,5.47
2022-08-03T01:47:25.525Z,5.47
2022-08-03T01:47:57.554Z,4.34
2022-08-03T01:48:29.761Z,3.54
2022-08-03T01:49:01.542Z,4.34
2022-08-03T01:49:33.609Z,4.66
2022-08-03T01:50:05.599Z,4.66
2022-08-03T01:50:34.518Z,4.66
2022-08-03T01:50:53.575Z,4.02
2022-08-03T01:51:56.559Z,3.54
2022-08-03T01:52:14.442Z,5.47
2022-08-03T01:52:34.555Z,4.66
2022-08-03T01:53:01.536Z,3.54
2022-08-03T01:53:35.399Z,2.89
2022-08-03T01:54:05.565Z,4.66
2022-08-03T01:54:34.555Z,5.47
2022-08-03T01:54:54.407Z,4.98
2022-08-03T01:55:25.713Z,3.54
2022-08-03T01:55:58.199Z,3.21
2022-08-03T01:56:29.837Z,1.77
2022-08-03T01:57:01.610Z,.32
2022-08-03T01:57:33.520Z,0
2022-08-03T01:58:21.604Z,1.44
2022-08-03T01:58:39.227Z,0
2022-08-03T01:59:09.806Z,0
2022-08-03T01:59:34.549Z,0
2022-08-03T01:59:59.051Z,1.12
2022-08-03T02:00:30.126Z,2.09
2022-08-03T02:01:03.600Z,2.89
2022-08-03T02:02:28.017Z,3.54
2022-08-03T02:02:35.363Z,4.02
2022-08-03T02:02:54.166Z,2.09
2022-08-03T02:03:25.646Z,1.44
2022-08-03T02:03:59.608Z,1.44
2022-08-03T02:04:14.580Z,1.77
2022-08-03T02:04:34.577Z,1.77
2022-08-03T02:05:01.514Z,1.77
2022-08-03T02:05:34.800Z,1.77
2022-08-03T02:07:00.730Z,.32
2022-08-03T02:07:10.484Z,.32
2022-08-03T02:07:35.632Z,.32
2022-08-03T02:07:59.988Z,1.77
2022-08-03T02:08:29.717Z,2.09
2022-08-03T02:09:01.829Z,1.44
2022-08-03T02:09:34.530Z,1.44
2022-08-03T02:10:05.493Z,2.09
2022-08-03T02:10:36.153Z,2.09
2022-08-03T02:10:53.544Z,2.09
2022-08-03T02:11:25.535Z,2.09
2022-08-03T02:11:42.910Z,2.57
2022-08-03T02:12:13.698Z,2.89
2022-08-03T02:12:35.400Z,1.77
2022-08-03T02:13:02.621Z,1.77
2022-08-03T02:13:33.505Z,1.77
2022-08-03T02:14:06.430Z,1.77
2022-08-03T02:14:35.108Z,1.77
2022-08-03T02:14:53.611Z,2.09
2022-08-03T02:15:25.592Z,2.09
2022-08-03T02:15:57.732Z,1.77
2022-08-03T02:16:29.774Z,1.77
2022-08-03T02:17:01.519Z,2.09
2022-08-03T02:17:39.724Z,2.09
2022-08-03T02:18:05.548Z,1.77
2022-08-03T02:18:34.588Z,2.09
2022-08-03T02:18:53.541Z,3.21
2022-08-03T02:19:25.523Z,2.89
2022-08-03T02:19:58.376Z,2.89
2022-08-03T02:20:29.989Z,3.54
2022-08-03T02:21:01.451Z,2.57
2022-08-03T02:21:57.327Z,2.09
2022-08-03T02:22:06.389Z,2.89
2022-08-03T02:22:34.571Z,2.09
2022-08-03T02:22:53.437Z,2.09
2022-08-03T02:23:25.502Z,2.09
2022-08-03T02:23:42.802Z,1.77
2022-08-03T02:24:13.544Z,3.54
2022-08-03T02:24:34.540Z,3.54
2022-08-03T02:25:02.285Z,3.54
2022-08-03T02:25:33.497Z,2.89
2022-08-03T02:26:05.513Z,3.54
2022-08-03T02:26:34.563Z,2.89
2022-08-03T02:26:55.112Z,3.54
2022-08-03T02:27:25.541Z,3.54
2022-08-03T02:27:57.923Z,2.89
2022-08-03T02:28:29.719Z,3.54
2022-08-03T02:29:01.457Z,2.57
2022-08-03T02:29:39.195Z,2.57
2022-08-03T02:30:05.780Z,2.09
2022-08-03T02:30:34.572Z,2.09
2022-08-03T02:30:54.016Z,2.09
2022-08-03T02:31:25.522Z,1.77
2022-08-03T02:31:42.574Z,1.77
2022-08-03T02:32:15.989Z,1.44
2022-08-03T02:32:35.853Z,1.77
2022-08-03T02:33:01.494Z,1.44
2022-08-03T02:33:33.597Z,.64
2022-08-03T02:34:05.503Z,1.12
2022-08-03T02:34:35.508Z,.32
2022-08-03T02:34:53.629Z,0
2022-08-03T02:35:26.207Z,0
2022-08-03T02:35:57.552Z,0
2022-08-03T02:36:31.416Z,0
2022-08-03T02:37:01.576Z,0
2022-08-03T02:37:33.595Z,0
2022-08-03T02:38:05.463Z,0
2022-08-03T02:38:36.529Z,0
2022-08-03T02:38:54.011Z,0
2022-08-03T02:39:25.574Z,0
2022-08-03T02:39:43.271Z,0
2022-08-03T02:40:13.572Z,.32
2022-08-03T02:40:34.611Z,1.12
2022-08-03T02:41:01.459Z,1.77
2022-08-03T02:41:34.623Z,1.77
2022-08-03T02:42:05.477Z,1.77
2022-08-03T02:42:34.560Z,1.77
2022-08-03T02:42:54.384Z,1.77
2022-08-03T02:43:25.326Z,1.77
2022-08-03T02:44:06.472Z,1.77
2022-08-03T02:44:29.761Z,1.77
2022-08-03T02:45:01.501Z,1.77
2022-08-03T02:45:34.155Z,1.77
2022-08-03T02:46:05.525Z,1.44
2022-08-03T02:46:35.367Z,1.44
2022-08-03T02:46:53.506Z,1.77
2022-08-03T02:47:26.265Z,1.44
2022-08-03T02:47:57.493Z,1.12
2022-08-03T02:48:30.403Z,1.12
2022-08-03T02:49:40.595Z,1.12
2022-08-03T02:50:05.491Z,1.12
2022-08-03T02:50:35.813Z,.32
2022-08-03T02:50:53.547Z,1.44
2022-08-03T02:51:25.448Z,1.12
2022-08-03T02:51:57.518Z,.32
2022-08-03T02:52:30.297Z,.32
2022-08-03T02:53:01.687Z,1.12
2022-08-03T02:53:33.441Z,1.12
2022-08-03T02:54:05.512Z,2.09
2022-08-03T02:54:34.544Z,2.89
2022-08-03T02:54:53.466Z,2.89
2022-08-03T02:55:25.445Z,2.89
2022-08-03T02:55:45.798Z,3.54
2022-08-03T02:56:13.505Z,3.54
2022-08-03T02:56:35.914Z,3.54
2022-08-03T02:57:01.473Z,3.54
2022-08-03T02:57:33.459Z,2.89
2022-08-03T02:58:05.517Z,3.54
2022-08-03T02:58:34.539Z,2.89
2022-08-03T02:58:53.578Z,1.77
2022-08-03T02:59:25.466Z,2.09
2022-08-03T02:59:42.627Z,2.09
2022-08-03T03:00:13.652Z,2.09
2022-08-03T03:00:34.658Z,2.09
2022-08-03T03:01:01.477Z,2.09
2022-08-03T03:01:33.557Z,3.54
2022-08-03T03:02:05.502Z,3.54
2022-08-03T03:02:36.434Z,3.54
2022-08-03T03:03:10.395Z,3.54
2022-08-03T03:03:37.938Z,3.21
2022-08-03T03:03:57.437Z,1.77
2022-08-03T03:04:33.081Z,1.77
2022-08-03T03:05:55.075Z,1.12
2022-08-03T03:06:07.122Z,3.54
2022-08-03T03:06:35.612Z,3.54
2022-08-03T03:06:53.493Z,3.21
2022-08-03T03:07:25.496Z,1.77
2022-08-03T03:07:51.812Z,1.77
2022-08-03T03:08:18.604Z,1.77
2022-08-03T03:08:34.673Z,1.44
2022-08-03T03:09:01.493Z,1.77
2022-08-03T03:09:40.299Z,1.44
2022-08-03T03:10:05.439Z,1.44
2022-08-03T03:10:36.825Z,1.44
2022-08-03T03:10:55.546Z,.32
2022-08-03T03:11:25.472Z,0
2022-08-03T03:11:57.436Z,0
2022-08-03T03:12:30.452Z,0
2022-08-03T03:13:02.922Z,1.44
2022-08-03T03:13:33.602Z,.32
2022-08-03T03:14:05.533Z,0
2022-08-03T03:14:34.545Z,.32
2022-08-03T03:14:53.503Z,0
2022-08-03T03:15:25.609Z,0
2022-08-03T03:15:42.767Z,0
2022-08-03T03:16:14.111Z,0
2022-08-03T03:16:34.729Z,0
2022-08-03T03:17:01.463Z,0
2022-08-03T03:17:33.647Z,0
2022-08-03T03:18:05.549Z,0
2022-08-03T03:18:34.653Z,0
2022-08-03T03:18:53.476Z,0
2022-08-03T03:19:25.455Z,0
2022-08-03T03:19:43.046Z,0
2022-08-03T03:20:14.465Z,0
2022-08-03T03:20:34.555Z,0
2022-08-03T03:21:01.382Z,0
2022-08-03T03:21:35.235Z,0
2022-08-03T03:22:06.485Z,0
2022-08-03T03:22:34.524Z,0
2022-08-03T03:22:53.457Z,0
2022-08-03T03:23:25.428Z,0
2022-08-03T03:23:43.503Z,0
2022-08-03T03:24:13.421Z,0
2022-08-03T03:24:34.562Z,0
2022-08-03T03:25:01.456Z,0
2022-08-03T03:25:34.438Z,0
2022-08-03T03:26:06.366Z,0
2022-08-03T03:26:35.882Z,0
2022-08-03T03:26:53.421Z,0
2022-08-03T03:27:25.377Z,0
2022-08-03T03:27:42.793Z,0
2022-08-03T03:28:13.444Z,0
2022-08-03T03:28:35.634Z,0
2022-08-03T03:29:01.435Z,0
2022-08-03T03:29:39.469Z,0
2022-08-03T03:30:05.679Z,0
2022-08-03T03:30:34.541Z,0
2022-08-03T03:30:53.652Z,0
2022-08-03T03:31:25.966Z,0
2022-08-03T03:31:42.485Z,0
2022-08-03T03:32:13.866Z,0
2022-08-03T03:32:34.527Z,0
2022-08-03T03:33:01.401Z,0
2022-08-03T03:33:34.051Z,0
2022-08-03T03:34:05.433Z,0
2022-08-03T03:34:34.390Z,0
2022-08-03T03:34:53.435Z,0
2022-08-03T03:35:26.306Z,0
2022-08-03T03:35:57.454Z,0
2022-08-03T03:36:30.138Z,0
2022-08-03T03:37:01.441Z,0
2022-08-03T03:37:33.370Z,0
2022-08-03T03:38:05.397Z,0
2022-08-03T03:38:34.518Z,0
2022-08-03T03:38:53.743Z,0
2022-08-03T03:39:25.438Z,0
2022-08-03T03:39:42.652Z,0
2022-08-03T03:40:13.427Z,0
2022-08-03T03:40:35.554Z,.32
2022-08-03T03:41:01.388Z,1.12
2022-08-03T03:41:34.076Z,1.44
2022-08-03T03:42:05.394Z,1.44
2022-08-03T03:42:36.227Z,1.77
2022-08-03T03:42:54.656Z,.32
2022-08-03T03:43:25.397Z,0
2022-08-03T03:43:42.562Z,0
2022-08-03T03:44:13.366Z,0
2022-08-03T03:44:36.621Z,0
2022-08-03T03:45:03.419Z,0
2022-08-03T03:45:34.409Z,0
2022-08-03T03:46:06.406Z,0
2022-08-03T03:46:37.134Z,0
2022-08-03T03:47:09.796Z,0
2022-08-03T03:47:34.527Z,0
2022-08-03T03:47:57.449Z,0
2022-08-03T03:48:29.727Z,0
2022-08-03T03:49:01.820Z,0
2022-08-03T03:49:33.480Z,0
2022-08-03T03:50:05.368Z,0
2022-08-03T03:50:34.617Z,0
2022-08-03T03:50:54.318Z,0
2022-08-03T03:51:25.424Z,0
2022-08-03T03:51:58.081Z,0
2022-08-03T03:52:29.671Z,0
2022-08-03T03:53:01.388Z,0
2022-08-03T03:53:33.418Z,1.12
2022-08-03T03:54:05.464Z,1.44
2022-08-03T03:54:34.546Z,.32
2022-08-03T03:54:58.999Z,.32
2022-08-03T03:55:25.540Z,1.77
2022-08-03T03:56:01.777Z,1.44
2022-08-03T03:56:31.785Z,1.77
2022-08-03T03:57:02.402Z,1.44
2022-08-03T03:57:33.595Z,0
2022-08-03T03:58:05.541Z,0
2022-08-03T03:58:34.810Z,0
2022-08-03T03:58:57.629Z,1.77
2022-08-03T03:59:25.626Z,0
2022-08-03T03:59:58.706Z,1.12
2022-08-03T04:00:30.145Z,1.12
2022-08-03T04:01:02.078Z,1.77
2022-08-03T04:01:35.831Z,1.44
2022-08-03T04:02:06.345Z,.64
2022-08-03T04:02:34.718Z,.32
2022-08-03T04:02:53.584Z,0
2022-08-03T04:03:25.477Z,1.12
2022-08-03T04:03:42.754Z,1.12
2022-08-03T04:04:13.610Z,0
2022-08-03T04:04:35.089Z,0
2022-08-03T04:05:02.465Z,1.44
2022-08-03T04:05:33.522Z,.64
2022-08-03T04:06:05.579Z,0
2022-08-03T04:06:35.980Z,0
2022-08-03T04:06:54.360Z,0
2022-08-03T04:07:25.585Z,0
2022-08-03T04:07:42.748Z,0
2022-08-03T04:08:13.690Z,0
2022-08-03T04:08:35.697Z,0
2022-08-03T04:09:01.582Z,0
2022-08-03T04:09:33.538Z,0
2022-08-03T04:10:14.272Z,0
2022-08-03T04:10:34.651Z,0
2022-08-03T04:10:53.537Z,0
2022-08-03T04:11:30.214Z,0
2022-08-03T04:11:57.641Z,0
2022-08-03T04:12:29.797Z,0
2022-08-03T04:13:02.947Z,0
2022-08-03T04:13:33.615Z,0
2022-08-03T04:14:05.543Z,0
2022-08-03T04:14:34.669Z,0
2022-08-03T04:14:53.489Z,0
2022-08-03T04:15:25.607Z,0
2022-08-03T04:15:43.567Z,0
2022-08-03T04:16:13.518Z,0
2022-08-03T04:16:34.689Z,0
2022-08-03T04:17:01.553Z,0
2022-08-03T04:17:33.588Z,0
2022-08-03T04:18:05.587Z,0
2022-08-03T04:18:35.378Z,0
2022-08-03T04:18:53.914Z,0
2022-08-03T04:19:25.503Z,0
2022-08-03T04:19:43.150Z,0
2022-08-03T04:20:13.558Z,0
2022-08-03T04:20:34.690Z,0
2022-08-03T04:21:01.501Z,0
2022-08-03T04:21:33.568Z,0
2022-08-03T04:22:06.456Z,0
2022-08-03T04:22:35.089Z,0
2022-08-03T04:22:53.499Z,1.12
2022-08-03T04:23:25.498Z,1.44
2022-08-03T04:23:42.648Z,1.12
2022-08-03T04:24:13.507Z,.32
2022-08-03T04:24:36.557Z,.32
2022-08-03T04:25:01.488Z,0
2022-08-03T04:25:33.618Z,0
2022-08-03T04:26:05.562Z,0
2022-08-03T04:26:35.087Z,0
2022-08-03T04:26:53.484Z,1.44
2022-08-03T04:27:25.494Z,1.44
2022-08-03T04:27:42.706Z,1.44
2022-08-03T04:28:29.391Z,1.44
2022-08-03T04:28:35.213Z,.32
2022-08-03T04:29:01.486Z,1.12
2022-08-03T04:29:33.745Z,.32
2022-08-03T04:30:05.999Z,0
2022-08-03T04:30:37.595Z,.32
2022-08-03T04:31:10.606Z,0
2022-08-03T04:31:34.825Z,.32
2022-08-03T04:31:57.596Z,1.12
2022-08-03T04:32:29.915Z,1.44
2022-08-03T04:33:01.660Z,1.12
2022-08-03T04:33:33.683Z,1.12
2022-08-03T04:34:06.341Z,1.77
2022-08-03T04:34:34.781Z,.64
2022-08-03T04:34:53.538Z,1.77
2022-08-03T04:36:02.382Z,0
2022-08-03T04:36:13.538Z,0
2022-08-03T04:36:34.708Z,0
2022-08-03T04:37:02.442Z,0
2022-08-03T04:37:33.716Z,.32
2022-08-03T04:38:06.559Z,0
2022-08-03T04:38:34.648Z,0
2022-08-03T04:38:53.427Z,.32
2022-08-03T04:39:25.465Z,1.12
2022-08-03T04:39:42.658Z,.32
2022-08-03T04:40:13.726Z,.64
2022-08-03T04:40:37.754Z,.32
2022-08-03T04:41:01.649Z,0
2022-08-03T04:41:33.507Z,0
2022-08-03T04:42:22.623Z,1.12
2022-08-03T04:42:40.100Z,1.12
2022-08-03T04:43:09.946Z,0
2022-08-03T04:43:34.670Z,0
2022-08-03T04:43:58.174Z,0
2022-08-03T04:44:29.996Z,0
2022-08-03T04:45:02.025Z,1.77
2022-08-03T04:45:34.214Z,1.44
2022-08-03T04:46:05.528Z,.32
2022-08-03T04:46:35.300Z,.64
2022-08-03T04:46:53.627Z,0
2022-08-03T04:47:25.594Z,.32
2022-08-03T04:47:57.612Z,0
2022-08-03T04:48:29.919Z,1.12
2022-08-03T04:49:01.638Z,1.44
2022-08-03T04:49:33.639Z,1.12
2022-08-03T04:50:09.128Z,0
2022-08-03T04:50:35.506Z,.32
2022-08-03T04:50:53.573Z,0
2022-08-03T04:51:25.454Z,0
2022-08-03T04:51:42.607Z,0
2022-08-03T04:52:14.592Z,0
2022-08-03T04:52:34.701Z,0
2022-08-03T04:53:01.579Z,.32
2022-08-03T04:53:33.500Z,1.12
2022-08-03T04:54:05.500Z,1.12
2022-08-03T04:54:34.941Z,.32
2022-08-03T04:54:53.509Z,1.12
2022-08-03T04:55:25.457Z,.32
2022-08-03T04:55:43.568Z,0
2022-08-03T04:56:13.528Z,0
2022-08-03T04:56:34.693Z,0
2022-08-03T04:57:01.555Z,0
2022-08-03T04:57:35.783Z,0
2022-08-03T04:58:05.555Z,0
2022-08-03T04:58:34.682Z,0
2022-08-03T04:58:53.478Z,0
2022-08-03T04:59:25.492Z,0
2022-08-03T04:59:42.625Z,0
2022-08-03T05:00:14.496Z,0
2022-08-03T05:00:34.671Z,0
2022-08-03T05:01:02.349Z,.32
2022-08-03T05:01:33.631Z,1.77
2022-08-03T05:02:05.594Z,1.77
2022-08-03T05:02:34.632Z,1.77
2022-08-03T05:02:53.529Z,1.44
2022-08-03T05:03:25.433Z,1.77
2022-08-03T05:03:42.622Z,1.77
2022-08-03T05:04:13.565Z,1.77
2022-08-03T05:04:34.776Z,1.77
2022-08-03T05:05:01.408Z,1.77
2022-08-03T05:05:47.411Z,1.44
2022-08-03T05:06:09.937Z,1.44
2022-08-03T05:06:34.679Z,0
2022-08-03T05:06:55.044Z,0
2022-08-03T05:07:25.627Z,.32
2022-08-03T05:07:43.850Z,.32
2022-08-03T05:08:13.507Z,0
2022-08-03T05:08:34.494Z,.32
2022-08-03T05:09:01.974Z,0
2022-08-03T05:09:50.594Z,0
2022-08-03T05:10:05.522Z,0
2022-08-03T05:10:36.381Z,0
2022-08-03T05:10:53.972Z,0
2022-08-03T05:11:25.403Z,0
2022-08-03T05:11:42.647Z,0
2022-08-03T05:12:14.005Z,0
2022-08-03T05:12:34.700Z,0
2022-08-03T05:13:01.809Z,0
2022-08-03T05:13:34.412Z,0
2022-08-03T05:14:05.769Z,0
2022-08-03T05:14:37.040Z,0
2022-08-03T05:14:53.504Z,0
2022-08-03T05:15:25.661Z,0
2022-08-03T05:15:43.403Z,0
2022-08-03T05:16:14.137Z,1.77
2022-08-03T05:16:34.717Z,.64
2022-08-03T05:17:01.517Z,1.12
2022-08-03T05:17:33.692Z,1.12
2022-08-03T05:18:07.052Z,1.12
2022-08-03T05:18:34.804Z,.64
2022-08-03T05:18:53.490Z,.64
2022-08-03T05:19:25.394Z,1.77
2022-08-03T05:19:42.618Z,1.77
2022-08-03T05:20:13.448Z,1.77
2022-08-03T05:20:35.280Z,1.44
2022-08-03T05:21:02.355Z,1.12
2022-08-03T05:21:52.242Z,1.12
2022-08-03T05:22:05.497Z,0
2022-08-03T05:22:34.852Z,.32
2022-08-03T05:22:53.672Z,0
2022-08-03T05:23:25.602Z,0
2022-08-03T05:23:44.859Z,0
2022-08-03T05:24:13.557Z,0
2022-08-03T05:24:35.918Z,0
2022-08-03T05:25:01.480Z,0
2022-08-03T05:25:33.689Z,0
2022-08-03T05:26:05.648Z,0
2022-08-03T05:26:37.103Z,.32
2022-08-03T05:26:53.393Z,.64
2022-08-03T05:27:25.585Z,.32
2022-08-03T05:27:58.454Z,.32
2022-08-03T05:28:29.742Z,0
2022-08-03T05:29:01.445Z,0
2022-08-03T05:29:33.476Z,0
2022-08-03T05:30:31.110Z,0
2022-08-03T05:30:37.674Z,0
2022-08-03T05:31:11.413Z,0
2022-08-03T05:31:37.230Z,0
2022-08-03T05:31:57.531Z,0
2022-08-03T05:32:30.538Z,0
2022-08-03T05:33:01.483Z,0
2022-08-03T05:33:33.498Z,0
2022-08-03T05:34:05.501Z,0
2022-08-03T05:34:36.280Z,0
2022-08-03T05:34:53.281Z,0
2022-08-03T05:35:56.016Z,0
2022-08-03T05:36:14.256Z,0
2022-08-03T05:36:34.703Z,0
2022-08-03T05:37:02.243Z,0
2022-08-03T05:37:33.457Z,0
2022-08-03T05:38:06.548Z,0
2022-08-03T05:38:35.520Z,0
2022-08-03T05:38:53.461Z,0
2022-08-03T05:39:25.412Z,0
2022-08-03T05:39:42.934Z,0
2022-08-03T05:40:13.479Z,0
2022-08-03T05:40:34.702Z,0
2022-08-03T05:41:20.586Z,0
2022-08-03T05:41:37.305Z,0
2022-08-03T05:42:06.598Z,0
2022-08-03T05:42:34.693Z,0
2022-08-03T05:42:53.464Z,0
2022-08-03T05:43:26.314Z,0
2022-08-03T05:43:57.520Z,0
2022-08-03T05:44:29.792Z,0
2022-08-03T05:45:01.441Z,0
2022-08-03T05:45:33.504Z,0
2022-08-03T05:46:12.244Z,0
2022-08-03T05:46:36.351Z,0
2022-08-03T05:46:53.485Z,0
2022-08-03T05:47:25.519Z,0
2022-08-03T05:47:42.615Z,0
2022-08-03T05:48:13.475Z,0
2022-08-03T05:48:34.735Z,.32
2022-08-03T05:49:01.555Z,.32
2022-08-03T05:49:33.535Z,0
2022-08-03T05:50:05.415Z,0
2022-08-03T05:50:38.733Z,0
2022-08-03T05:50:53.462Z,0
2022-08-03T05:51:25.466Z,0
2022-08-03T05:51:43.867Z,0
2022-08-03T05:52:15.609Z,0
2022-08-03T05:52:35.772Z,0
2022-08-03T05:53:01.497Z,0
2022-08-03T05:53:33.521Z,0
2022-08-03T05:54:05.567Z,0
2022-08-03T05:54:56.517Z,0
2022-08-03T05:55:09.718Z,0
2022-08-03T05:55:34.845Z,0
2022-08-03T05:56:13.055Z,0
2022-08-03T05:56:29.728Z,0
2022-08-03T05:57:01.664Z,0
2022-08-03T05:57:33.412Z,0
2022-08-03T05:58:05.504Z,0
2022-08-03T05:58:34.967Z,0
2022-08-03T05:58:54.417Z,0
2022-08-03T05:59:38.268Z,0
2022-08-03T05:59:54.573Z,0
2022-08-03T06:00:13.716Z,0
2022-08-03T06:00:34.972Z,0
2022-08-03T06:01:01.530Z,0
2022-08-03T06:01:33.404Z,0
2022-08-03T06:02:06.409Z,0
2022-08-03T06:02:34.968Z,0
2022-08-03T06:02:53.675Z,0
2022-08-03T06:03:25.650Z,0
2022-08-03T06:03:45.413Z,0
2022-08-03T06:04:14.613Z,0
2022-08-03T06:04:34.846Z,0
2022-08-03T06:05:02.584Z,0
2022-08-03T06:05:33.667Z,0
2022-08-03T06:06:06.642Z,0
2022-08-03T06:06:34.891Z,0
2022-08-03T06:06:54.318Z,0
2022-08-03T06:07:25.690Z,0
2022-08-03T06:07:42.907Z,0
2022-08-03T06:08:15.506Z,0
2022-08-03T06:08:35.005Z,0
2022-08-03T06:09:02.278Z,0
2022-08-03T06:10:34.983Z,0
2022-08-03T06:10:53.625Z,0
2022-08-03T06:11:25.777Z,0
2022-08-03T06:11:42.864Z,0
2022-08-03T06:12:14.274Z,0
2022-08-03T06:12:34.873Z,0
2022-08-03T06:13:02.083Z,0
2022-08-03T06:13:33.708Z,0
2022-08-03T06:14:05.587Z,0
2022-08-03T06:14:34.885Z,0
2022-08-03T06:14:53.667Z,0
2022-08-03T06:15:25.810Z,0
2022-08-03T06:15:43.000Z,0
2022-08-03T06:16:13.655Z,0
2022-08-03T06:16:36.025Z,0
2022-08-03T06:17:02.340Z,0
2022-08-03T06:17:37.262Z,0
2022-08-03T06:18:05.407Z,0
2022-08-03T06:18:36.012Z,0
2022-08-03T06:18:53.575Z,0
2022-08-03T06:19:25.540Z,0
2022-08-03T06:19:42.713Z,0
2022-08-03T06:20:14.681Z,0
2022-08-03T06:20:35.532Z,0
2022-08-03T06:21:14.814Z,0
2022-08-03T06:21:33.597Z,0
2022-08-03T06:22:06.337Z,0
2022-08-03T06:22:35.019Z,0
2022-08-03T06:23:00.779Z,0
2022-08-03T06:23:52.818Z,0
2022-08-03T06:23:57.643Z,0
2022-08-03T06:24:29.932Z,0
2022-08-03T06:25:05.065Z,0
2022-08-03T06:25:33.686Z,0
2022-08-03T06:26:05.616Z,0
2022-08-03T06:26:36.762Z,0
2022-08-03T06:27:10.320Z,0
2022-08-03T06:27:37.181Z,0
2022-08-03T06:27:57.663Z,0
2022-08-03T06:28:51.621Z,.32
2022-08-03T06:29:01.617Z,0
2022-08-03T06:29:34.703Z,.32
2022-08-03T06:30:06.285Z,.32
2022-08-03T06:30:38.040Z,0
2022-08-03T06:31:10.973Z,0
2022-08-03T06:31:34.971Z,0
2022-08-03T06:31:57.465Z,0
2022-08-03T06:32:29.836Z,0
2022-08-03T06:33:01.557Z,0
2022-08-03T06:34:31.507Z,0
2022-08-03T06:34:53.605Z,.32
2022-08-03T06:35:26.280Z,0
2022-08-03T06:35:44.714Z,0
2022-08-03T06:36:13.834Z,.32
2022-08-03T06:36:35.028Z,.32
2022-08-03T06:37:03.578Z,.32
2022-08-03T06:37:33.593Z,0
2022-08-03T06:38:05.603Z,0
2022-08-03T06:38:34.892Z,0
2022-08-03T06:38:53.522Z,0